Time;durP1;ratioP1;P1;durP2;ratioP2;P2;SDS_P1;SDS_P2;PMS_P1;PMS_P2;Temp;Humidity;BMP_temperature;BMP_pressure;BME280_temperature;BME280_humidity;BME280_pressure;Samples;Min_cycle;Max_cycle;Signal;HPM_P1;HPM_P2
2023/03/25 00:01:52;;;;;;;1.70;0.73;;;;;;;13.29;56.44;97168.31;8316061;28;20589;-69
2023/03/25 00:05:56;;;;;;;1.73;0.73;;;;;;;13.17;57.46;97157.91;8315908;28;20227;-69
2023/03/25 00:09:59;;;;;;;1.67;0.70;;;;;;;12.87;58.18;97157.28;8315897;28;20250;-69
2023/03/25 00:14:03;;;;;;;1.53;1.07;;;;;;;13.22;56.65;97158.44;8315747;28;20244;-69
2023/03/25 00:18:07;;;;;;;1.10;0.80;;;;;;;12.99;57.23;97157.41;8315717;28;20223;-69
2023/03/25 00:22:10;;;;;;;2.30;1.00;;;;;;;13.10;57.35;97155.72;8315372;28;20244;-68
2023/03/25 00:26:13;;;;;;;2.07;0.90;;;;;;;12.70;57.83;97136.78;8315402;28;20226;-68
2023/03/25 00:30:17;;;;;;;1.50;1.07;;;;;;;12.45;58.30;97142.72;8315139;28;20230;-68
2023/03/25 00:34:24;;;;;;;0.83;0.77;;;;;;;12.97;56.95;97141.91;8315003;28;20298;-68
2023/03/25 00:38:33;;;;;;;1.60;1.00;;;;;;;12.60;57.42;97130.50;8314887;28;20227;-68
2023/03/25 00:42:35;;;;;;;1.80;1.00;;;;;;;12.93;57.06;97131.78;8315120;28;20233;-68
2023/03/25 00:46:38;;;;;;;1.43;1.00;;;;;;;12.62;57.80;97126.91;8314765;28;20466;-68
2023/03/25 00:50:47;;;;;;;0.73;0.70;;;;;;;12.93;56.89;97158.63;8314646;28;20222;-69
2023/03/25 00:54:51;;;;;;;0.93;0.87;;;;;;;12.42;59.86;97141.19;8314426;28;20231;-68
2023/03/25 00:58:54;;;;;;;1.50;1.13;;;;;;;13.05;58.31;97146.59;8314688;28;20300;-68
2023/03/25 01:02:57;;;;;;;3.90;1.07;;;;;;;12.64;59.43;97139.75;8313663;28;20234;-69
2023/03/25 01:07:02;;;;;;;2.73;1.20;;;;;;;12.54;60.77;97142.13;8314550;28;20230;-68
2023/03/25 01:11:05;;;;;;;2.03;1.10;;;;;;;12.63;59.93;97130.31;8314315;28;20428;-69
2023/03/25 01:15:10;;;;;;;3.40;1.47;;;;;;;12.74;60.23;97127.00;8313987;28;20227;-68
2023/03/25 01:19:14;;;;;;;1.70;1.20;;;;;;;12.67;60.21;97106.63;8313910;28;20398;-69
2023/03/25 01:23:21;;;;;;;3.33;1.20;;;;;;;12.76;60.25;97109.56;8313997;28;20235;-69
2023/03/25 01:27:24;;;;;;;3.97;1.33;;;;;;;12.80;60.64;97121.41;8313641;28;20230;-67
2023/03/25 01:31:28;;;;;;;2.80;1.47;;;;;;;12.61;60.85;97114.00;8313548;28;20453;-68
2023/03/25 01:35:31;;;;;;;1.50;1.20;;;;;;;12.43;61.48;97103.91;8313368;28;20489;-69
2023/03/25 01:39:36;;;;;;;1.20;1.10;;;;;;;12.52;60.76;97092.88;8313137;28;20227;-69
2023/03/25 01:43:39;;;;;;;2.23;1.23;;;;;;;12.43;60.63;97101.31;8313534;28;20229;-69
2023/03/25 01:47:44;;;;;;;2.53;1.30;;;;;;;12.45;60.34;97098.59;8312901;28;20549;-68
2023/03/25 01:51:50;;;;;;;2.93;1.20;;;;;;;12.36;59.87;97092.25;8313075;28;20596;-68
2023/03/25 01:55:55;;;;;;;1.47;1.00;;;;;;;12.54;59.16;97103.19;8312784;28;20265;-68
2023/03/25 01:59:58;;;;;;;3.27;1.10;;;;;;;12.42;59.56;97099.63;8312827;28;20238;-68
2023/03/25 02:04:08;;;;;;;1.90;0.90;;;;;;;12.53;58.70;97101.53;8313293;28;20231;-69
2023/03/25 02:08:11;;;;;;;2.13;1.13;;;;;;;12.65;58.33;97087.72;8312704;28;20226;-68
2023/03/25 02:12:15;;;;;;;2.07;1.00;;;;;;;12.57;57.87;97082.22;8313093;28;20226;-68
2023/03/25 02:16:27;;;;;;;3.07;0.87;;;;;;;12.30;58.39;97092.66;8319567;28;20223;-69
2023/03/25 02:21:07;;;;;;;2.10;0.97;;;;;;;12.48;57.21;97082.81;8319057;28;20237;-69
2023/03/25 02:25:35;;;;;;;2.37;0.80;;;;;;;12.43;57.24;97100.44;8318871;28;20518;-68
2023/03/25 02:29:52;;;;;;;2.50;0.80;;;;;;;12.50;57.23;97096.53;8319062;28;20235;-69
2023/03/25 02:34:30;;;;;;;2.67;0.80;;;;;;;12.40;57.30;97092.88;8318661;28;20226;-68
2023/03/25 02:38:39;;;;;;;3.57;1.00;;;;;;;12.23;56.81;97100.00;8316521;28;20221;-69
2023/03/25 02:42:45;;;;;;;2.80;1.00;;;;;;;11.98;57.19;97100.75;8318060;28;20513;-68
2023/03/25 02:46:51;;;;;;;2.90;1.00;;;;;;;12.03;56.89;97108.22;8318537;28;20234;-68
2023/03/25 02:50:56;;;;;;;2.23;0.90;;;;;;;11.80;56.48;97109.66;8318213;28;20245;-69
2023/03/25 02:55:03;;;;;;;3.33;1.00;;;;;;;11.69;57.10;97097.34;8317577;28;20245;-68
2023/03/25 02:59:07;;;;;;;2.50;1.00;;;;;;;11.92;56.03;97101.97;8318138;28;20468;-69
2023/03/25 03:03:10;;;;;;;4.07;1.00;;;;;;;11.79;56.50;97103.63;8317904;28;20240;-68
2023/03/25 03:07:23;;;;;;;2.53;0.70;;;;;;;11.87;56.24;97100.56;8317524;28;20289;-69
2023/03/25 03:11:28;;;;;;;2.73;0.80;;;;;;;11.05;56.36;96986.38;8317748;28;20234;-68
2023/03/25 03:15:37;;;;;;;2.93;0.80;;;;;;;12.00;55.94;97098.88;8317658;28;20222;-69
2023/03/25 03:19:45;;;;;;;2.83;1.03;;;;;;;12.02;55.80;97089.25;8317499;28;20230;-69
2023/03/25 03:23:54;;;;;;;3.43;1.03;;;;;;;11.90;56.09;97090.03;8316240;28;20234;-69
2023/03/25 03:28:04;;;;;;;2.07;0.80;;;;;;;12.25;55.55;97092.13;8316435;28;20344;-68
2023/03/25 03:32:10;;;;;;;4.13;1.00;;;;;;;12.27;55.04;97096.25;8316820;28;20233;-68
2023/03/25 03:36:15;;;;;;;3.23;0.87;;;;;;;12.02;55.82;97104.81;8316573;28;20250;-68
2023/03/25 03:40:20;;;;;;;4.60;0.93;;;;;;;12.11;55.35;97080.03;8316530;28;20238;-69
2023/03/25 03:44:27;;;;;;;4.33;0.77;;;;;;;12.34;55.04;97104.50;8316549;28;20227;-69
2023/03/25 03:48:33;;;;;;;4.00;0.77;;;;;;;12.08;55.69;97111.38;8316112;28;20395;-68
2023/03/25 03:52:39;;;;;;;2.33;0.80;;;;;;;12.19;55.89;97108.91;8315974;28;20230;-69
2023/03/25 03:56:45;;;;;;;2.60;1.03;;;;;;;12.10;56.32;97093.94;8315526;28;20245;-67
2023/03/25 04:00:52;;;;;;;5.10;1.27;;;;;;;12.14;55.81;97121.34;8315757;28;20239;-68
2023/03/25 04:04:59;;;;;;;3.37;1.00;;;;;;;11.88;57.21;97141.97;8315851;28;20226;-69
2023/03/25 04:09:05;;;;;;;3.83;1.00;;;;;;;12.04;57.76;97122.88;8315670;28;20542;-69
2023/03/25 04:13:10;;;;;;;3.57;0.80;;;;;;;11.72;58.43;97115.31;8315765;28;20284;-68
2023/03/25 04:17:14;;;;;;;4.27;0.93;;;;;;;11.66;57.50;97108.75;8315423;28;20238;-68
2023/03/25 04:21:17;;;;;;;1.47;0.80;;;;;;;11.71;56.36;97108.50;8315193;28;20253;-67
2023/03/25 04:25:23;;;;;;;1.53;0.70;;;;;;;11.37;56.94;97105.38;8315259;28;20301;-68
2023/03/25 04:29:27;;;;;;;1.70;0.63;;;;;;;11.50;56.28;97108.06;8315186;28;20229;-68
2023/03/25 04:33:31;;;;;;;1.67;0.70;;;;;;;11.60;56.08;97113.50;8314882;28;20230;-68
2023/03/25 04:37:35;;;;;;;1.27;0.60;;;;;;;11.48;55.55;97128.88;8314860;28;20233;-68
2023/03/25 04:41:40;;;;;;;1.47;0.73;;;;;;;11.51;55.38;97105.34;8314815;28;20432;-68
2023/03/25 04:45:47;;;;;;;2.80;0.70;;;;;;;11.49;55.47;97119.34;8314358;28;20230;-68
2023/03/25 04:49:52;;;;;;;0.90;0.53;;;;;;;11.59;54.85;97122.19;8314591;28;20604;-68
2023/03/25 04:53:55;;;;;;;0.80;0.40;;;;;;;11.14;55.21;97097.25;8314206;28;20415;-68
2023/03/25 04:57:58;;;;;;;1.70;0.47;;;;;;;11.15;55.64;97122.22;8314234;28;20242;-69
2023/03/25 05:02:01;;;;;;;0.57;0.37;;;;;;;11.47;54.89;97122.03;8314387;28;20234;-68
2023/03/25 05:06:07;;;;;;;1.37;0.43;;;;;;;11.72;54.45;97136.06;8314102;28;20362;-68
2023/03/25 05:10:11;;;;;;;1.50;0.50;;;;;;;11.56;54.80;97143.97;8314263;28;20227;-69
2023/03/25 05:14:19;;;;;;;1.10;0.47;;;;;;;11.57;55.30;97144.81;8314030;28;20234;-69
2023/03/25 05:18:21;;;;;;;1.50;0.60;;;;;;;11.60;54.85;97157.59;8313913;28;20230;-69
2023/03/25 05:22:30;;;;;;;1.30;0.60;;;;;;;11.64;54.62;97161.66;8313591;28;20234;-68
2023/03/25 05:26:34;;;;;;;2.60;0.60;;;;;;;11.64;54.50;97167.66;8313082;28;20230;-68
2023/03/25 05:30:38;;;;;;;0.67;0.50;;;;;;;11.30;54.63;97163.69;8312810;28;20222;-69
2023/03/25 05:34:41;;;;;;;0.73;0.50;;;;;;;11.25;54.28;97174.34;8313618;28;20337;-69
2023/03/25 05:38:47;;;;;;;1.40;0.70;;;;;;;11.28;53.80;97175.91;8312942;28;20231;-68
2023/03/25 05:42:53;;;;;;;1.33;0.70;;;;;;;11.18;53.33;97175.63;8313416;28;20422;-68
2023/03/25 05:46:59;;;;;;;3.23;0.67;;;;;;;11.15;53.55;97183.59;8313052;28;20522;-69
2023/03/25 05:51:04;;;;;;;1.23;0.60;;;;;;;11.32;53.20;97203.31;8312622;28;20232;-68
2023/03/25 05:55:14;;;;;;;1.67;0.70;;;;;;;11.62;53.97;97203.25;8312901;28;20233;-70
2023/03/25 05:59:17;;;;;;;2.10;0.73;;;;;;;11.64;52.52;97205.75;8313130;28;20223;-70
2023/03/25 06:03:20;;;;;;;3.23;0.63;;;;;;;11.63;52.47;97204.91;8313259;28;20226;-69
2023/03/25 06:07:26;;;;;;;2.07;0.57;;;;;;;11.46;53.12;97221.50;8312568;28;20226;-70
2023/03/25 06:11:30;;;;;;;2.00;0.83;;;;;;;11.13;53.11;97206.16;8312792;28;20230;-69
2023/03/25 06:15:37;;;;;;;2.37;0.70;;;;;;;11.25;53.10;97214.97;8312728;28;20227;-70
2023/03/25 06:19:40;;;;;;;3.67;0.80;;;;;;;11.37;52.08;97224.63;8312918;28;20231;-70
2023/03/25 06:23:43;;;;;;;2.30;0.80;;;;;;;11.33;52.76;97221.38;8312496;28;20245;-69
2023/03/25 06:27:49;;;;;;;2.50;1.00;;;;;;;11.45;52.78;97230.19;8312646;28;20510;-69
2023/03/25 06:31:52;;;;;;;2.07;0.90;;;;;;;11.68;52.33;97231.38;8312729;28;20230;-70
2023/03/25 06:35:55;;;;;;;2.23;0.80;;;;;;;11.51;52.87;97237.59;8312282;28;20238;-69
2023/03/25 06:39:58;;;;;;;2.60;0.90;;;;;;;11.68;53.04;97226.19;8312599;28;20320;-70
2023/03/25 06:44:04;;;;;;;2.63;0.70;;;;;;;11.47;52.42;97224.91;8312773;28;20249;-70
2023/03/25 06:48:07;;;;;;;3.10;1.00;;;;;;;11.73;52.54;97218.97;8312586;28;20222;-70
2023/03/25 06:52:10;;;;;;;2.63;0.80;;;;;;;11.79;52.57;97232.53;8312276;28;20250;-69
2023/03/25 06:56:13;;;;;;;3.63;0.90;;;;;;;11.93;52.40;97228.16;8312006;28;20230;-69
2023/03/25 07:00:22;;;;;;;3.00;1.13;;;;;;;11.97;52.36;97230.56;8313870;28;20264;-71
2023/03/25 07:04:25;;;;;;;2.80;0.77;;;;;;;11.91;51.98;97230.00;8317934;28;20242;-70
2023/03/25 07:08:27;;;;;;;3.80;0.70;;;;;;;11.79;51.75;97225.56;8317753;28;20560;-70
2023/03/25 07:12:30;;;;;;;5.63;1.20;;;;;;;11.60;52.04;97225.84;8317457;28;20234;-71
2023/03/25 07:16:35;;;;;;;2.43;0.93;;;;;;;11.76;51.30;97227.50;8317794;28;20230;-70
2023/03/25 07:20:37;;;;;;;3.27;1.00;;;;;;;11.76;51.36;97230.91;8317477;28;20483;-69
2023/03/25 07:24:47;;;;;;;3.37;1.23;;;;;;;11.80;50.90;97231.56;8317089;28;20230;-69
2023/03/25 07:28:50;;;;;;;3.30;1.10;;;;;;;11.90;50.82;97236.16;8317134;28;20226;-69
2023/03/25 07:32:56;;;;;;;2.47;0.87;;;;;;;11.47;51.92;97232.69;8316974;28;20252;-69
2023/03/25 07:36:58;;;;;;;3.93;1.43;;;;;;;11.95;51.40;97232.44;8317038;28;20241;-69
2023/03/25 07:41:05;;;;;;;3.00;1.30;;;;;;;11.85;51.32;97240.75;8316372;28;20239;-69
2023/03/25 07:45:08;;;;;;;2.77;1.03;;;;;;;11.85;51.33;97238.16;8316764;28;20227;-69
2023/03/25 07:49:12;;;;;;;2.00;0.80;;;;;;;11.68;51.51;97233.97;8316392;28;20233;-69
2023/03/25 07:53:15;;;;;;;3.50;1.00;;;;;;;11.92;51.96;97242.06;8315607;28;20235;-69
2023/03/25 07:57:18;;;;;;;2.47;0.80;;;;;;;12.02;51.25;97239.75;8316215;28;20230;-69
2023/03/25 08:01:21;;;;;;;4.43;1.30;;;;;;;11.92;50.93;97242.06;8317496;28;20529;-69
2023/03/25 08:05:26;;;;;;;4.57;1.43;;;;;;;12.30;50.55;97232.84;8316117;28;20557;-69
2023/03/25 08:09:29;;;;;;;3.87;0.97;;;;;;;12.23;50.61;97244.53;8315561;28;20532;-69
2023/03/25 08:13:32;;;;;;;3.90;1.17;;;;;;;12.91;49.74;97248.88;8316144;28;20238;-69
2023/03/25 08:17:35;;;;;;;4.07;1.30;;;;;;;12.64;48.46;97244.53;8316315;28;20225;-69
2023/03/25 08:21:40;;;;;;;6.80;1.30;;;;;;;12.97;48.42;97248.44;8315774;28;20638;-69
2023/03/25 08:25:43;;;;;;;3.47;1.10;;;;;;;14.13;46.59;97251.13;8314695;28;20230;-68
2023/03/25 08:29:53;;;;;;;4.63;1.20;;;;;;;15.33;43.31;97245.06;8315029;28;20327;-70
2023/03/25 08:33:56;;;;;;;5.03;1.40;;;;;;;14.97;43.26;97226.81;8315164;28;20564;-70
2023/03/25 08:38:04;;;;;;;5.17;1.47;;;;;;;14.19;45.10;97248.91;8314857;28;20238;-70
2023/03/25 08:42:07;;;;;;;5.27;1.60;;;;;;;14.37;45.00;97235.50;8314815;28;20236;-70
2023/03/25 08:46:10;;;;;;;6.30;1.30;;;;;;;13.85;44.94;97246.03;8314383;28;20225;-71
2023/03/25 08:50:13;;;;;;;6.23;1.57;;;;;;;13.46;45.11;97226.16;8314640;28;20385;-70
2023/03/25 08:54:17;;;;;;;5.93;1.43;;;;;;;13.06;46.16;97234.84;8314456;28;20245;-70
2023/03/25 08:58:21;;;;;;;6.53;1.73;;;;;;;14.20;44.52;97244.50;8314386;28;20224;-70
2023/03/25 09:02:23;;;;;;;4.03;1.50;;;;;;;16.48;38.77;97228.31;8314190;28;20588;-71
2023/03/25 09:06:26;;;;;;;3.03;1.17;;;;;;;16.69;37.73;97217.91;8314202;28;20246;-70
2023/03/25 09:10:30;;;;;;;3.20;1.30;;;;;;;16.29;38.04;97222.91;8313908;28;20535;-70
2023/03/25 09:14:33;;;;;;;3.33;1.30;;;;;;;16.88;37.85;97224.31;8313789;28;20565;-71
2023/03/25 09:18:36;;;;;;;4.53;1.57;;;;;;;15.83;38.31;97212.50;8313985;28;20425;-70
2023/03/25 09:22:39;;;;;;;4.00;1.40;;;;;;;16.65;36.90;97216.50;8312925;28;20238;-71
2023/03/25 09:26:44;;;;;;;4.60;1.67;;;;;;;16.14;36.60;97210.09;8312905;28;20468;-71
2023/03/25 09:30:47;;;;;;;4.67;1.70;;;;;;;15.15;38.31;97210.75;8313585;28;20252;-72
2023/03/25 09:34:49;;;;;;;4.63;1.20;;;;;;;15.44;38.38;97213.78;8313456;28;20234;-71
2023/03/25 09:38:52;;;;;;;5.83;1.53;;;;;;;15.03;38.38;97208.09;8313510;28;20228;-72
2023/03/25 09:43:07;;;;;;;2.77;1.40;;;;;;;15.79;38.54;97215.50;8313580;28;20381;-72
2023/03/25 09:47:11;;;;;;;4.23;1.50;;;;;;;17.23;36.55;97212.72;8313320;28;20408;-71
2023/03/25 09:51:22;;;;;;;4.77;1.43;;;;;;;17.76;34.07;97192.47;8313297;28;20530;-71
2023/03/25 09:55:26;;;;;;;2.30;1.27;;;;;;;18.76;33.99;97209.94;8312959;28;20236;-71
2023/03/25 09:59:38;;;;;;;3.33;1.27;;;;;;;18.30;34.37;97208.81;8313141;28;20404;-71
2023/03/25 10:03:48;;;;;;;4.50;1.40;;;;;;;18.11;33.86;97193.84;8313021;28;20469;-71
2023/03/25 10:08:00;;;;;;;5.47;1.50;;;;;;;16.56;36.25;97204.19;8312586;28;20238;-72
2023/03/25 10:12:07;;;;;;;4.77;1.53;;;;;;;16.16;37.37;97195.16;8313270;28;20227;-71
2023/03/25 10:16:20;;;;;;;3.80;1.20;;;;;;;15.57;37.65;97182.34;8312817;28;20226;-71
2023/03/25 10:20:35;;;;;;;4.47;1.37;;;;;;;15.73;38.21;97195.06;8312663;28;20286;-72
2023/03/25 10:24:40;;;;;;;5.00;1.40;;;;;;;15.45;40.50;97199.78;8312821;28;20248;-71
2023/03/25 10:28:48;;;;;;;3.17;1.20;;;;;;;15.49;43.86;97206.41;8312169;28;20515;-71
2023/03/25 10:32:55;;;;;;;3.33;1.10;;;;;;;14.84;45.63;97148.69;8312408;28;20235;-71
2023/03/25 10:36:59;;;;;;;2.93;1.20;;;;;;;15.59;45.27;97189.13;8318103;28;20234;-70
2023/03/25 10:41:11;;;;;;;2.20;1.00;;;;;;;16.64;42.17;97190.50;8318819;28;20236;-70
2023/03/25 10:45:16;;;;;;;3.67;1.27;;;;;;;16.48;41.68;97178.66;8318453;28;20472;-70
2023/03/25 10:49:21;;;;;;;3.20;1.83;;;;;;;16.23;55.16;97180.63;8318357;28;20429;-72
2023/03/25 10:53:26;;;;;;;2.07;0.90;;;;;;;15.27;43.67;97183.75;8317451;28;20239;-71
2023/03/25 10:57:31;;;;;;;2.53;0.80;;;;;;;14.64;44.82;97178.84;8317960;28;20399;-70
2023/03/25 11:01:36;;;;;;;3.47;0.90;;;;;;;14.25;45.56;97182.53;8318107;28;20234;-71
2023/03/25 11:05:41;;;;;;;2.40;1.07;;;;;;;14.39;46.21;97191.94;8317868;28;20235;-70
2023/03/25 11:09:44;;;;;;;4.83;0.80;;;;;;;13.09;52.21;97224.25;8317595;28;20233;-70
2023/03/25 11:13:47;;;;;;;2.30;0.83;;;;;;;12.98;55.59;97263.09;8317509;28;20583;-70
2023/03/25 11:17:57;;;;;;;2.10;0.70;;;;;;;11.99;55.87;97263.28;8317528;28;20237;-71
2023/03/25 11:22:03;;;;;;;0.50;0.40;;;;;;;12.19;55.86;97222.31;8317641;28;20296;-71
2023/03/25 11:26:08;;;;;;;1.00;0.50;;;;;;;13.30;54.17;97206.41;8317214;28;20227;-71
2023/03/25 11:30:17;;;;;;;3.67;1.07;;;;;;;14.33;54.40;97187.19;8317281;28;20231;-69
2023/03/25 11:34:21;;;;;;;0.83;0.67;;;;;;;14.73;52.82;97179.94;8316919;28;20538;-70
2023/03/25 11:38:31;;;;;;;1.80;0.77;;;;;;;15.99;49.92;97174.75;8317040;28;20235;-70
2023/03/25 11:42:38;;;;;;;1.17;0.30;;;;;;;16.55;48.81;97182.44;8317039;28;20230;-70
2023/03/25 11:46:42;;;;;;;1.20;0.40;;;;;;;15.50;48.62;97158.50;8316025;28;20234;-70
2023/03/25 11:50:51;;;;;;;0.60;0.40;;;;;;;14.88;49.97;97157.09;8316249;28;20233;-69
2023/03/25 11:54:56;;;;;;;1.50;0.60;;;;;;;14.88;50.24;97166.72;8316125;28;20305;-70
2023/03/25 11:59:03;;;;;;;1.07;0.30;;;;;;;15.05;49.99;97167.09;8316330;28;20269;-70
2023/03/25 12:03:17;;;;;;;1.07;0.50;;;;;;;15.89;47.45;97166.81;8316019;28;20221;-70
2023/03/25 12:07:23;;;;;;;1.80;0.80;;;;;;;16.17;48.96;97155.00;8316154;28;20237;-70
2023/03/25 12:11:29;;;;;;;2.17;0.57;;;;;;;16.02;48.21;97143.19;8315934;28;20222;-69
2023/03/25 12:15:37;;;;;;;1.33;0.70;;;;;;;16.01;46.95;97137.13;8315799;28;20227;-70
2023/03/25 12:19:49;;;;;;;1.43;0.67;;;;;;;16.23;45.87;97141.44;8315497;28;20267;-69
2023/03/25 12:24:04;;;;;;;1.40;0.90;;;;;;;16.08;44.11;97121.78;8315368;28;20530;-69
2023/03/25 12:28:39;;;;;;;1.70;1.13;;;;;;;15.73;43.87;97094.09;8315240;28;20302;-69
2023/03/25 12:32:46;;;;;;;1.23;0.70;;;;;;;16.07;43.44;97111.47;8281916;28;20233;-69
2023/03/25 12:36:56;;;;;;;1.03;0.63;;;;;;;16.41;42.58;97110.41;8314844;28;20275;-69
2023/03/25 12:41:16;;;;;;;1.53;0.80;;;;;;;16.05;40.65;97095.94;8314953;28;20240;-71
2023/03/25 12:45:36;;;;;;;1.17;0.67;;;;;;;15.99;41.43;97099.03;8314976;28;20240;-70
2023/03/25 12:50:02;;;;;;;2.50;0.60;;;;;;;15.20;42.82;97092.09;8314655;28;20239;-70
2023/03/25 12:54:15;;;;;;;0.60;0.60;;;;;;;15.04;43.46;97099.41;8301860;28;20226;-69
2023/03/25 12:58:35;;;;;;;2.37;1.00;;;;;;;14.80;44.24;97109.94;8314571;28;20235;-70
2023/03/25 13:03:16;;;;;;;5.13;3.20;;;;;;;15.27;56.62;97118.53;8314354;28;20242;-72
2023/03/25 13:07:24;;;;;;;9.30;1.57;;;;;;;15.73;44.58;97108.91;8313674;28;20527;-70
2023/03/25 13:11:31;;;;;;;1.67;0.90;;;;;;;14.89;44.63;97119.69;8313976;28;20226;-70
2023/03/25 13:15:37;;;;;;;4.27;0.47;;;;;;;14.81;49.17;97158.50;8313574;28;20303;-70
2023/03/25 13:19:43;;;;;;;1.40;0.50;;;;;;;14.20;51.80;97195.88;8313551;28;20230;-71
2023/03/25 13:23:51;;;;;;;3.43;1.03;;;;;;;14.11;52.60;97216.50;8313115;28;20237;-71
2023/03/25 13:27:56;;;;;;;4.63;0.70;;;;;;;13.54;52.67;97213.50;8313344;28;20229;-73
2023/03/25 13:32:02;;;;;;;0.73;0.33;;;;;;;14.60;50.82;97198.25;8313017;28;20405;-71
2023/03/25 13:36:11;;;;;;;1.53;0.60;;;;;;;15.63;50.73;97172.28;8312941;28;20234;-71
2023/03/25 13:40:23;;;;;;;1.33;0.70;;;;;;;15.81;48.51;97135.28;8313149;28;20226;-70
2023/03/25 13:44:28;;;;;;;1.53;0.37;;;;;;;16.88;46.71;97146.69;8312992;28;20501;-72
2023/03/25 13:48:36;;;;;;;2.33;0.30;;;;;;;18.26;42.98;97133.19;8312679;28;20224;-71
2023/03/25 13:52:43;;;;;;;0.93;0.70;;;;;;;18.66;44.40;97129.63;8312934;28;20313;-72
2023/03/25 13:57:31;;;;;;;1.07;0.43;;;;;;;17.39;45.09;97140.63;8312384;28;20233;-71
2023/03/25 14:01:48;;;;;;;0.57;0.50;;;;;;;16.21;48.45;97158.22;8241357;28;20245;-70
2023/03/25 14:06:19;;;;;;;1.13;0.50;;;;;;;15.11;49.93;97136.31;8312371;28;20347;-70
2023/03/25 14:10:28;;;;;;;1.70;0.50;;;;;;;15.63;48.22;97127.91;8316153;28;20234;-71
2023/03/25 14:14:36;;;;;;;2.03;0.50;;;;;;;17.05;43.44;97116.50;8318980;28;20478;-72
2023/03/25 14:18:43;;;;;;;3.27;1.50;;;;;;;16.90;42.90;97126.47;8318703;28;20233;-70
2023/03/25 14:22:47;;;;;;;1.07;0.70;;;;;;;17.25;43.39;97124.44;8318553;28;20222;-70
2023/03/25 14:26:51;;;;;;;1.73;0.60;;;;;;;17.49;42.78;97122.34;8318860;28;20236;-69
2023/03/25 14:31:09;;;;;;;1.50;0.67;;;;;;;17.03;41.53;97123.66;8318692;28;20553;-70
2023/03/25 14:35:50;;;;;;;3.33;0.80;;;;;;;16.39;44.34;97135.84;8318392;28;20291;-71
2023/03/25 14:39:54;;;;;;;1.67;0.63;;;;;;;15.96;43.53;97094.88;8316812;28;20233;-70
2023/03/25 14:44:13;;;;;;;0.77;0.50;;;;;;;16.14;45.31;97130.91;8318456;28;20502;-69
2023/03/25 14:48:25;;;;;;;3.83;0.80;;;;;;;16.13;45.80;97132.72;8317876;28;20275;-70
2023/03/25 14:52:32;;;;;;;1.70;0.80;;;;;;;17.47;43.23;97119.03;8318211;28;20538;-70
2023/03/25 14:56:38;;;;;;;2.37;0.90;;;;;;;17.33;42.71;97117.63;8317597;28;20256;-70
2023/03/25 15:00:44;;;;;;;2.17;0.80;;;;;;;16.59;45.49;97121.13;8318156;28;20315;-71
2023/03/25 15:04:52;;;;;;;1.93;0.90;;;;;;;17.03;43.68;97128.06;8317444;28;20243;-70
2023/03/25 15:08:58;;;;;;;2.33;0.97;;;;;;;15.85;43.25;97094.91;8317597;28;20232;-69
2023/03/25 15:13:04;;;;;;;1.33;0.87;;;;;;;16.69;44.38;97112.53;8317656;28;20750;-71
2023/03/25 15:17:10;;;;;;;7.60;1.37;;;;;;;16.98;41.92;97118.81;8317572;28;20407;-70
2023/03/25 15:21:15;;;;;;;2.47;1.10;;;;;;;16.91;41.48;97109.00;8316443;28;20230;-70
2023/03/25 15:25:20;;;;;;;2.00;1.03;;;;;;;16.76;42.05;97117.13;8317326;28;20367;-70
2023/03/25 15:29:45;;;;;;;3.73;0.87;;;;;;;17.17;41.21;97118.09;8317110;28;20236;-70
2023/03/25 15:34:02;;;;;;;3.07;1.47;;;;;;;16.31;40.48;97103.44;8316393;28;20418;-69
2023/03/25 15:38:19;;;;;;;2.87;0.87;;;;;;;16.38;41.59;97102.00;8316809;28;20237;-70
2023/03/25 15:43:00;;;;;;;3.37;1.37;;;;;;;16.40;41.46;97105.31;8316833;28;20551;-70
2023/03/25 15:47:22;;;;;;;3.03;0.83;;;;;;;16.31;41.72;97101.66;8286035;28;20223;-71
2023/03/25 15:51:36;;;;;;;3.73;0.97;;;;;;;16.98;42.76;97104.91;8316958;28;20420;-71
2023/03/25 15:55:40;;;;;;;2.20;0.90;;;;;;;15.54;42.86;97067.78;8316225;28;20241;-71
2023/03/25 15:59:45;;;;;;;2.30;0.80;;;;;;;15.32;42.97;97111.19;8315694;28;20537;-70
2023/03/25 16:03:56;;;;;;;3.30;1.00;;;;;;;16.20;44.72;97110.38;8316134;28;20227;-70
2023/03/25 16:08:01;;;;;;;4.47;0.90;;;;;;;16.18;44.39;97104.44;8315728;28;20238;-71
2023/03/25 16:12:04;;;;;;;2.70;1.00;;;;;;;15.64;43.48;97105.25;8316107;28;20236;-71
2023/03/25 16:16:09;;;;;;;2.80;1.20;;;;;;;15.65;42.40;97086.03;8315821;28;20232;-71
2023/03/25 16:20:17;;;;;;;3.57;1.10;;;;;;;16.33;42.92;97119.81;8315442;28;20226;-71
2023/03/25 16:24:23;;;;;;;2.63;0.80;;;;;;;15.98;43.50;97123.50;8315420;28;20529;-72
2023/03/25 16:28:28;;;;;;;3.07;1.00;;;;;;;15.48;41.77;97120.41;8315480;28;20238;-71
2023/03/25 16:32:34;;;;;;;3.90;0.90;;;;;;;15.93;42.60;97112.56;8314906;28;20234;-71
2023/03/25 16:36:37;;;;;;;1.93;1.00;;;;;;;15.77;44.29;97112.97;8314956;28;20249;-71
2023/03/25 16:40:45;;;;;;;1.93;1.00;;;;;;;14.92;42.06;97064.69;8314149;28;20242;-71
2023/03/25 16:44:48;;;;;;;4.73;1.37;;;;;;;15.22;43.13;97116.28;8314578;28;20228;-69
2023/03/25 16:48:54;;;;;;;4.40;1.03;;;;;;;14.87;42.41;97113.75;8314512;28;20227;-70
2023/03/25 16:53:01;;;;;;;3.37;0.90;;;;;;;15.38;42.79;97112.47;8314486;28;20237;-70
2023/03/25 16:57:06;;;;;;;2.60;0.97;;;;;;;15.37;44.58;97116.88;8313900;28;20234;-70
2023/03/25 17:01:10;;;;;;;2.20;0.90;;;;;;;15.69;43.76;97129.22;8314129;28;20226;-70
2023/03/25 17:05:17;;;;;;;3.33;1.30;;;;;;;15.15;41.92;97135.13;8314276;28;20234;-71
2023/03/25 17:09:22;;;;;;;3.43;1.23;;;;;;;14.57;41.19;97140.31;8314104;28;20238;-70
2023/03/25 17:13:27;;;;;;;4.77;2.23;;;;;;;14.29;41.23;97147.50;8313907;28;20230;-71
2023/03/25 17:17:40;;;;;;;5.53;2.03;;;;;;;14.07;41.86;97137.81;8313473;28;20230;-71
2023/03/25 17:26:27;;;;;;;4.97;4.03;;;;;;;13.79;41.89;97115.53;8380813;27;20548;-70
2023/03/25 17:30:42;;;;;;;5.03;3.43;;;;;;;13.91;41.89;97143.28;8374570;28;20321;-71
2023/03/25 17:34:45;;;;;;;4.90;2.20;;;;;;;13.97;42.33;97145.44;8373639;28;20225;-71
2023/03/25 17:38:48;;;;;;;7.30;4.57;;;;;;;13.85;42.31;97149.75;8373867;28;20229;-70
2023/03/25 17:42:53;;;;;;;4.73;3.80;;;;;;;13.86;42.40;97158.41;8374219;28;20228;-70
2023/03/25 17:46:56;;;;;;;4.07;3.67;;;;;;;13.82;42.30;97160.38;8373850;28;20236;-70
2023/03/25 17:50:59;;;;;;;5.47;2.90;;;;;;;13.62;42.03;97147.94;8373993;28;20312;-71
2023/03/25 17:55:02;;;;;;;2.90;2.50;;;;;;;13.76;41.33;97150.38;8376717;28;20230;-71
2023/03/25 17:59:10;;;;;;;2.90;1.10;;;;;;;13.56;41.42;97150.97;8405158;28;20422;-70
2023/03/25 18:03:14;;;;;;;3.33;1.10;;;;;;;13.53;41.23;97161.56;8406170;28;20229;-71
2023/03/25 18:07:20;;;;;;;2.03;1.00;;;;;;;13.67;40.96;97154.47;8406483;28;20231;-70
2023/03/25 18:11:23;;;;;;;3.60;1.20;;;;;;;13.55;41.46;97155.31;8406356;28;20303;-71
2023/03/25 18:15:27;;;;;;;7.80;1.30;;;;;;;13.59;41.46;97164.56;8405842;28;20232;-71
2023/03/25 18:19:30;;;;;;;3.10;1.17;;;;;;;13.53;41.49;97161.56;8405674;28;20226;-71
2023/03/25 18:23:34;;;;;;;13.03;1.80;;;;;;;13.69;41.66;97164.78;8405802;28;20521;-71
2023/03/25 18:27:37;;;;;;;3.40;1.40;;;;;;;13.55;40.94;97170.91;8406143;28;20540;-70
2023/03/25 18:31:47;;;;;;;3.47;1.23;;;;;;;13.31;41.26;97155.25;8405192;28;20289;-70
2023/03/25 18:35:51;;;;;;;3.13;1.20;;;;;;;13.51;40.58;97163.44;8392941;28;20233;-70
2023/03/25 18:39:54;;;;;;;3.20;1.30;;;;;;;13.28;40.67;97161.44;8383616;28;20617;-70
2023/03/25 18:43:57;;;;;;;4.30;1.00;;;;;;;13.35;40.31;97169.69;8383285;28;20263;-70
2023/03/25 18:48:01;;;;;;;1.50;0.90;;;;;;;13.22;39.96;97171.44;8383348;28;20226;-71
2023/03/25 18:52:04;;;;;;;3.43;1.13;;;;;;;13.20;39.92;97163.75;8383338;28;20238;-71
2023/03/25 18:56:08;;;;;;;3.30;1.20;;;;;;;13.22;39.77;97180.06;8383069;28;20527;-70
2023/03/25 19:00:17;;;;;;;3.90;1.20;;;;;;;13.13;39.68;97169.47;8383582;28;20225;-72
2023/03/25 19:04:22;;;;;;;1.97;0.90;;;;;;;13.29;40.02;97185.69;8383624;28;20533;-71
2023/03/25 19:08:26;;;;;;;2.97;1.30;;;;;;;13.15;39.92;97186.59;8383324;28;20252;-72
2023/03/25 19:12:28;;;;;;;3.73;1.20;;;;;;;13.14;39.82;97199.72;8383586;28;20242;-70
2023/03/25 19:16:31;;;;;;;2.37;0.80;;;;;;;13.11;39.90;97205.94;8383397;28;20248;-71
2023/03/25 19:20:36;;;;;;;3.33;1.13;;;;;;;12.99;39.85;97210.19;8383137;28;20427;-71
2023/03/25 19:24:39;;;;;;;2.37;1.00;;;;;;;13.06;39.82;97206.28;8383085;28;20235;-70
2023/03/25 19:28:42;;;;;;;1.60;1.10;;;;;;;12.97;40.26;97206.88;8382378;28;20231;-70